| time (UTC) | temp C | wind direction | speed KPH | gust KPH | rain 1hr cm | rain 24hr cm | rain mn cm | humidity % | barometer mb |
| 20260505011745 | 17 | 1 | 46.7 | 53.1 | 0.00 | 0.00 | 0.00 | 37 | |
| 20260505011242 | 17 | 15 | 32.2 | 43.5 | 0.00 | 0.00 | 0.00 | 37 | |
| 20260505010738 | 17 | 16 | 29.0 | 41.8 | 0.00 | 0.00 | 0.00 | 37 | |
| 20260505010234 | 18 | 8 | 35.4 | 49.9 | 0.00 | 0.00 | 0.00 | 36 | |
| 20260505005731 | 18 | 6 | 43.5 | 54.7 | 0.00 | 0.00 | 0.00 | 35 | |
| 20260505005228 | 19 | 3 | 45.1 | 53.1 | 0.00 | 0.00 | 0.00 | 34 | |
| 20260505004725 | 20 | 17 | 29.0 | 38.6 | 0.00 | 0.00 | 0.00 | 34 | |
| 20260505004221 | 20 | 25 | 33.8 | 48.3 | 0.00 | 0.00 | 0.00 | 33 | |
| 20260505003719 | 20 | 6 | 37.0 | 43.5 | 0.00 | 0.00 | 0.00 | 33 | |
| 20260505003217 | 20 | 15 | 40.2 | 48.3 | 0.00 | 0.00 | 0.00 | 33 | |
| 20260505002712 | 20 | 4 | 35.4 | 46.7 | 0.00 | 0.00 | 0.00 | 33 | |
| 20260505002210 | 20 | 1 | 27.4 | 48.3 | 0.00 | 0.00 | 0.00 | 33 | |
| 20260505001708 | 20 | 3 | 32.2 | 46.7 | 0.00 | 0.00 | 0.00 | 33 | |
| 20260505001205 | 20 | 4 | 30.6 | 35.4 | 0.00 | 0.00 | 0.00 | 33 | |
| 20260505000702 | 20 | 348 | 32.2 | 40.2 | 0.00 | 0.00 | 0.00 | 32 | |
| 20260505000200 | 21 | 4 | 38.6 | 49.9 | 0.00 | 0.00 | 0.00 | 32 | |
| 20260504235656 | 21 | 10 | 40.2 | 51.5 | 0.00 | 0.00 | 0.00 | 31 | |
| 20260504235152 | 21 | 16 | 35.4 | 41.8 | 0.00 | 0.00 | 0.00 | 31 | |
| 20260504234650 | 21 | 1 | 35.4 | 43.5 | 0.00 | 0.00 | 0.00 | 31 | |
| 20260504234147 | 21 | 7 | 30.6 | 38.6 | 0.00 | 0.00 | 0.00 | 32 | |
| 20260504233643 | 21 | 359 | 24.1 | 38.6 | 0.00 | 0.00 | 0.00 | 32 | |
| 20260504233139 | 21 | 11 | 38.6 | 41.8 | 0.00 | 0.00 | 0.00 | 32 | |
| 20260504232637 | 21 | 5 | 43.5 | 53.1 | 0.00 | 0.00 | 0.00 | 31 | |
| 20260504232133 | 21 | 8 | 29.0 | 43.5 | 0.00 | 0.00 | 0.00 | 31 | |
| 20260504231630 | 22 | 358 | 30.6 | 40.2 | 0.00 | 0.00 | 0.00 | 31 | |
| 20260504231126 | 22 | 352 | 32.2 | 43.5 | 0.00 | 0.00 | 0.00 | 30 | |
| 20260504230622 | 22 | 355 | 33.8 | 40.2 | 0.00 | 0.00 | 0.00 | 30 | |
| 20260504230122 | 22 | 7 | 35.4 | 46.7 | 0.00 | 0.00 | 0.00 | 30 | |
| 20260504225619 | 22 | 9 | 29.0 | 43.5 | 0.00 | 0.00 | 0.00 | 30 | |
| 20260504225115 | 23 | 5 | 30.6 | 48.3 | 0.00 | 0.00 | 0.00 | 29 | |
| 20260504224612 | 23 | 8 | 35.4 | 41.8 | 0.00 | 0.00 | 0.00 | 29 | |
| 20260504224109 | 23 | 14 | 29.0 | 43.5 | 0.00 | 0.00 | 0.00 | 29 | |
| 20260504223606 | 23 | 3 | 40.2 | 49.9 | 0.00 | 0.00 | 0.00 | 28 | |
| 20260504223101 | 23 | 11 | 40.2 | 46.7 | 0.00 | 0.00 | 0.00 | 28 | |
| 20260504222559 | 24 | 5 | 35.4 | 41.8 | 0.00 | 0.00 | 0.00 | 28 | |
| 20260504222056 | 24 | 359 | 20.9 | 40.2 | 0.00 | 0.00 | 0.00 | 28 | |
| 20260504221553 | 25 | 357 | 30.6 | 43.5 | 0.00 | 0.00 | 0.00 | 28 | |
| 20260504221050 | 24 | 3 | 25.7 | 40.2 | 0.00 | 0.00 | 0.00 | 29 | |
| 20260504220546 | 24 | 16 | 32.2 | 43.5 | 0.00 | 0.00 | 0.00 | 29 | |
| 20260504220044 | 24 | 1 | 30.6 | 40.2 | 0.00 | 0.00 | 0.00 | 29 | |
| 20260504215540 | 24 | 2 | 24.1 | 37.0 | 0.00 | 0.00 | 0.00 | 30 | |
| 20260504215037 | 24 | 358 | 24.1 | 35.4 | 0.00 | 0.00 | 0.00 | 31 | |
| 20260504214533 | 25 | 2 | 32.2 | 38.6 | 0.00 | 0.00 | 0.00 | 30 | |
| 20260504214030 | 25 | 16 | 27.4 | 35.4 | 0.00 | 0.00 | 0.00 | 30 | |
| 20260504213526 | 25 | 10 | 30.6 | 40.2 | 0.00 | 0.00 | 0.00 | 30 | |
| 20260504213024 | 25 | 16 | 25.7 | 48.3 | 0.00 | 0.00 | 0.00 | 30 | |
| 20260504212519 | 26 | 356 | 27.4 | 35.4 | 0.00 | 0.00 | 0.00 | 30 | |
| 20260504212017 | 25 | 4 | 14.5 | 25.7 | 0.00 | 0.00 | 0.00 | 32 | |
| 20260504211514 | 25 | 353 | 17.7 | 25.7 | 0.00 | 0.00 | 0.00 | 31 | |
| 20260504211011 | 25 | 4 | 27.4 | 43.5 | 0.00 | 0.00 | 0.00 | 31 | |
| 20260504210508 | 25 | 354 | 25.7 | 41.8 | 0.00 | 0.00 | 0.00 | 32 | |
| 20260504210004 | 25 | 19 | 22.5 | 27.4 | 0.00 | 0.00 | 0.00 | 33 | |
| 20260504205502 | 25 | 358 | 25.7 | 35.4 | 0.00 | 0.00 | 0.00 | 33 | |
| 20260504205000 | 25 | 319 | 25.7 | 35.4 | 0.00 | 0.00 | 0.00 | 33 | |
| 20260504204458 | 25 | 349 | 14.5 | 35.4 | 0.00 | 0.00 | 0.00 | 33 | |
| 20260504203957 | 26 | 352 | 22.5 | 27.4 | 0.00 | 0.00 | 0.00 | 33 | |
| 20260504203454 | 26 | 351 | 17.7 | 27.4 | 0.00 | 0.00 | 0.00 | 30 | |
| 20260504202950 | 26 | 10 | 19.3 | 27.4 | 0.00 | 0.00 | 0.00 | 30 | |
| 20260504202447 | 26 | 320 | 11.3 | 24.1 | 0.00 | 0.00 | 0.00 | 31 | |
| 20260504201944 | 26 | 5 | 27.4 | 33.8 | 0.00 | 0.00 | 0.00 | 30 | |
| 20260504201441 | 26 | 315 | 24.1 | 33.8 | 0.00 | 0.00 | 0.00 | 30 | |
| 20260504200939 | 26 | 356 | 22.5 | 29.0 | 0.00 | 0.00 | 0.00 | 28 | |
| 20260504200435 | 26 | 15 | 20.9 | 24.1 | 0.00 | 0.00 | 0.00 | 28 | |
| 20260504195931 | 26 | 332 | 12.9 | 24.1 | 0.00 | 0.00 | 0.00 | 29 | |
| 20260504195427 | 27 | 311 | 11.3 | 22.5 | 0.00 | 0.00 | 0.00 | 28 | |
| 20260504194924 | 27 | 270 | 9.7 | 17.7 | 0.00 | 0.00 | 0.00 | 28 | |
| 20260504194420 | 27 | 5 | 25.7 | 30.6 | 0.00 | 0.00 | 0.00 | 28 | |
| 20260504193916 | 27 | 330 | 20.9 | 33.8 | 0.00 | 0.00 | 0.00 | 27 | |
| 20260504193414 | 27 | 350 | 9.7 | 17.7 | 0.00 | 0.00 | 0.00 | 28 | |
| 20260504192912 | 27 | 344 | 24.1 | 35.4 | 0.00 | 0.00 | 0.00 | 27 | |
| 20260504192409 | 27 | 320 | 9.7 | 20.9 | 0.00 | 0.00 | 0.00 | 28 | |
| 20260504191908 | 27 | 282 | 14.5 | 24.1 | 0.00 | 0.00 | 0.00 | 28 | |
| 20260504191405 | 27 | 318 | 14.5 | 20.9 | 0.00 | 0.00 | 0.00 | 28 | |
| 20260504190901 | 27 | 321 | 17.7 | 25.7 | 0.00 | 0.00 | 0.00 | 27 | |
| 20260504190357 | 27 | 293 | 14.5 | 17.7 | 0.00 | 0.00 | 0.00 | 28 | |
| 20260504185854 | 27 | 356 | 9.7 | 22.5 | 0.00 | 0.00 | 0.00 | 28 | |
| 20260504185351 | 27 | 311 | 19.3 | 27.4 | 0.00 | 0.00 | 0.00 | 28 | |
| 20260504184847 | 27 | 328 | 11.3 | 17.7 | 0.00 | 0.00 | 0.00 | 27 | |
| 20260504184343 | 27 | 323 | 14.5 | 17.7 | 0.00 | 0.00 | 0.00 | 27 | |
| 20260504183839 | 27 | 278 | 8.0 | 11.3 | 0.00 | 0.00 | 0.00 | 25 | |
| 20260504183336 | 27 | 328 | 8.0 | 22.5 | 0.00 | 0.00 | 0.00 | 26 | |
| 20260504182834 | 26 | 280 | 20.9 | 29.0 | 0.00 | 0.00 | 0.00 | 26 | |
| 20260504182331 | 27 | 274 | 16.1 | 29.0 | 0.00 | 0.00 | 0.00 | 25 | |
| 20260504181827 | 27 | 308 | 20.9 | 25.7 | 0.00 | 0.00 | 0.00 | 25 | |
| 20260504181325 | 27 | 334 | 19.3 | 22.5 | 0.00 | 0.00 | 0.00 | 26 | |
| 20260504180824 | 26 | 336 | 19.3 | 27.4 | 0.00 | 0.00 | 0.00 | 26 | |
| 20260504180322 | 26 | 266 | 16.1 | 17.7 | 0.00 | 0.00 | 0.00 | 27 | |
| 20260504175820 | 26 | 294 | 14.5 | 22.5 | 0.00 | 0.00 | 0.00 | 26 | |
| 20260504175316 | 26 | 310 | 11.3 | 29.0 | 0.00 | 0.00 | 0.00 | 25 | |
| 20260504174815 | 26 | 9 | 11.3 | 24.1 | 0.00 | 0.00 | 0.00 | 27 | |
| 20260504174312 | 26 | 308 | 24.1 | 25.7 | 0.00 | 0.00 | 0.00 | 28 | |
| 20260504173808 | 26 | 277 | 9.7 | 24.1 | 0.00 | 0.00 | 0.00 | 29 | |
| 20260504173305 | 26 | 312 | 12.9 | 25.7 | 0.00 | 0.00 | 0.00 | 27 | |
| 20260504172802 | 26 | 325 | 14.5 | 25.7 | 0.00 | 0.00 | 0.00 | 28 | |
| 20260504172259 | 26 | 345 | 12.9 | 20.9 | 0.00 | 0.00 | 0.00 | 29 | |
| 20260504171754 | 26 | 283 | 6.4 | 17.7 | 0.00 | 0.00 | 0.00 | 31 | |
| 20260504171252 | 25 | 341 | 8.0 | 11.3 | 0.00 | 0.00 | 0.00 | 32 | |
| 20260504170749 | 25 | 293 | 14.5 | 16.1 | 0.00 | 0.00 | 0.00 | 33 | |
| 20260504170246 | 25 | 354 | 4.8 | 29.0 | 0.00 | 0.00 | 0.00 | 33 | |
| 20260504160204 | 22 | 273 | 9.7 | 17.7 | 0.00 | 0.00 | 0.00 | 43 | |
| 20260504151132 | 19 | 251 | 12.9 | 17.7 | 0.00 | 0.00 | 0.00 | 47 | |
| 20260504150630 | 19 | 296 | 8.0 | 12.9 | 0.00 | 0.00 | 0.00 | 47 | |
| 20260504150126 | 19 | 197 | 3.2 | 9.7 | 0.00 | 0.00 | 0.00 | 48 | |
| 20260504141055 | 17 | 309 | 3.2 | 6.4 | 0.00 | 0.00 | 0.00 | 52 | |
| 20260504140551 | 17 | 170 | 3.2 | 11.3 | 0.00 | 0.00 | 0.00 | 52 | |
| 20260504130516 | 13 | 354 | 4.8 | 4.8 | 0.00 | 0.00 | 0.00 | 64 | |
| 20260504110403 | 12 | 192 | 1.6 | 3.2 | 0.00 | 0.00 | 0.00 | 56 | |
| 20260504100320 | 12 | 181 | 4.8 | 9.7 | 0.00 | 0.00 | 0.00 | 55 | |
| 20260504081714 | 13 | 164 | 11.3 | 12.9 | 0.00 | 0.00 | 0.00 | 53 | |
| 20260504081210 | 13 | 158 | 9.7 | 11.3 | 0.00 | 0.00 | 0.00 | 54 | |
| 20260504080707 | 12 | 170 | 6.4 | 6.4 | 0.00 | 0.00 | 0.00 | 55 | |
| 20260504080203 | 12 | 165 | 6.4 | 6.4 | 0.00 | 0.00 | 0.00 | 55 | |
| 20260504070131 | 14 | 162 | 12.9 | 14.5 | 0.00 | 0.00 | 0.00 | 51 | |
| 20260504050520 | 15 | 142 | 6.4 | 6.4 | 0.00 | 0.00 | 0.00 | 46 | |
| 20260504050017 | 16 | 140 | 8.0 | 9.7 | 0.00 | 0.00 | 0.00 | 45 | |
| 20260504045513 | 16 | 131 | 9.7 | 9.7 | 0.00 | 0.00 | 0.00 | 44 | |
| 20260504045009 | 16 | 136 | 9.7 | 11.3 | 0.00 | 0.00 | 0.00 | 44 | |
| 20260504044506 | 16 | 137 | 6.4 | 6.4 | 0.00 | 0.00 | 0.00 | 44 | |
| 20260504044003 | 16 | 132 | 6.4 | 6.4 | 0.00 | 0.00 | 0.00 | 44 | |
| 20260504043500 | 16 | 145 | 4.8 | 6.4 | 0.00 | 0.00 | 0.00 | 45 | |
| 20260504042958 | 16 | 157 | 6.4 | 6.4 | 0.00 | 0.00 | 0.00 | 45 | |
| 20260504042454 | 16 | 150 | 4.8 | 4.8 | 0.00 | 0.00 | 0.00 | 44 | |
| 20260504041951 | 16 | 146 | 6.4 | 6.4 | 0.00 | 0.00 | 0.00 | 44 | |
| 20260504041447 | 16 | 152 | 6.4 | 6.4 | 0.00 | 0.00 | 0.00 | 44 | |
| 20260504040943 | 16 | 164 | 6.4 | 6.4 | 0.00 | 0.00 | 0.00 | 47 | |
| 20260504040441 | 16 | 165 | 6.4 | 6.4 | 0.00 | 0.00 | 0.00 | 46 | |
| 20260504035937 | 16 | 162 | 6.4 | 6.4 | 0.00 | 0.00 | 0.00 | 46 | |
| 20260504035435 | 16 | 160 | 6.4 | 9.7 | 0.00 | 0.00 | 0.00 | 46 | |
| 20260504034931 | 16 | 166 | 8.0 | 9.7 | 0.00 | 0.00 | 0.00 | 47 | |
| 20260504034429 | 16 | 169 | 6.4 | 6.4 | 0.00 | 0.00 | 0.00 | 46 | |
| 20260504033925 | 16 | 182 | 4.8 | 9.7 | 0.00 | 0.00 | 0.00 | 44 | |
| 20260504033423 | 17 | 170 | 6.4 | 6.4 | 0.00 | 0.00 | 0.00 | 43 | |
| 20260504032920 | 17 | 169 | 9.7 | 9.7 | 0.00 | 0.00 | 0.00 | 42 | |
| 20260504032417 | 17 | 166 | 6.4 | 6.4 | 0.00 | 0.00 | 0.00 | 41 | |
| 20260504031913 | 16 | 166 | 6.4 | 6.4 | 0.00 | 0.00 | 0.00 | 43 | |
| 20260504031411 | 17 | 163 | 9.7 | 9.7 | 0.00 | 0.00 | 0.00 | 43 | |
| 20260504030907 | 18 | 152 | 6.4 | 11.3 | 0.00 | 0.00 | 0.00 | 40 | |
| 20260504030405 | 18 | 136 | 6.4 | 9.7 | 0.00 | 0.00 | 0.00 | 39 | |
| 20260504025900 | 18 | 129 | 6.4 | 6.4 | 0.00 | 0.00 | 0.00 | 39 | |
| 20260504025358 | 17 | 159 | 9.7 | 11.3 | 0.00 | 0.00 | 0.00 | 43 | |
| 20260504024854 | 18 | 144 | 6.4 | 6.4 | 0.00 | 0.00 | 0.00 | 38 | |
| 20260504024351 | 18 | 147 | 6.4 | 6.4 | 0.00 | 0.00 | 0.00 | 38 | |
| 20260504023848 | 18 | 155 | 6.4 | 6.4 | 0.00 | 0.00 | 0.00 | 40 | |
| 20260504023344 | 18 | 148 | 3.2 | 4.8 | 0.00 | 0.00 | 0.00 | 38 | |
| 20260504022840 | 19 | 126 | 4.8 | 6.4 | 0.00 | 0.00 | 0.00 | 37 | |
| 20260504022337 | 18 | 142 | 4.8 | 4.8 | 0.00 | 0.00 | 0.00 | 38 | |
| 20260504021833 | 18 | 142 | 4.8 | 4.8 | 0.00 | 0.00 | 0.00 | 38 | |
| 20260504021331 | 18 | 124 | 3.2 | 4.8 | 0.00 | 0.00 | 0.00 | 38 | |
| 20260504020828 | 18 | 92 | 3.2 | 4.8 | 0.00 | 0.00 | 0.00 | 39 | |
| 20260504020325 | 19 | 91 | 1.6 | 1.6 | 0.00 | 0.00 | 0.00 | 38 | |
| 20260504015820 | 19 | 91 | 1.6 | 3.2 | 0.00 | 0.00 | 0.00 | 37 | |
| 20260504015317 | 20 | 92 | 1.6 | 1.6 | 0.00 | 0.00 | 0.00 | 37 | |
| 20260504014813 | 20 | 92 | 3.2 | 3.2 | 0.00 | 0.00 | 0.00 | 36 | |
| 20260504014309 | 20 | 72 | 1.6 | 3.2 | 0.00 | 0.00 | 0.00 | 37 | |
| 20260504013807 | 20 | 60 | 0.0 | 1.6 | 0.00 | 0.00 | 0.00 | 36 | |
| 20260504013305 | 20 | 61 | 3.2 | 4.8 | 0.00 | 0.00 | 0.00 | 36 | |
| 20260504012801 | 20 | 59 | 1.6 | 4.8 | 0.00 | 0.00 | 0.00 | 36 | |
| 20260504012259 | 20 | 57 | 4.8 | 6.4 | 0.00 | 0.00 | 0.00 | 35 |